Skip Navigation Links
NOAA logo - Click to go to the NOAA homepage
NOAA's National Weather Service
Alaska Aviation Weather Unit
  NWS logo - Click to go to the NWS homepage
Left Navbar Graphic     15 AKDT = 23 GMT

   
NOAA is celebrating 200 years of science, service, and stewardship. Visit the NOAA 200th celebration Web site to learn more.
USA.gov is the U.S. Government's official Web portal to all Federal, state and local government Web resources and services.
Facebook
NWS on Facebook

AAWU Home :: Display TAF Add Bookmark
METAR PAPB 281753Z AUTO 13006KT 10SM OVC012 02/01 A2984 RMK AO2
 SLP093 T00220006 10022 20011 57005 TSNO=

SPECI PAPB 281804Z AUTO 12007KT 10SM BKN009 OVC013 02/01 A2984 RMK AO2
     CIG 007V011 T00220006 TSNO=

SPECI PAPB 281839Z AUTO 13008KT 10SM OVC011 03/01 A2983 RMK AO2
 T00280006 TSNO=

METAR PAPB 281853Z AUTO 14007KT 10SM OVC011 03/01 A2983 RMK AO2 SLP088
     T00280006 TSNO=

METAR PAPB 281953Z AUTO 16010KT 10SM OVC014 03/00 A2982 RMK AO2 SLP086
     T00330000 TSNO=

METAR PAPB 282053Z AUTO 15011KT 10SM SCT013 OVC060 05/01 A2980 RMK AO2
     SLP080 T00500006 58012 TSNO=

SPECI PAPB 282119Z AUTO 15011KT 10SM BKN016 OVC060 04/00 A2980 RMK AO2
     T00440000 TSNO=

METAR PAPB 282153Z AUTO 14011KT 10SM BKN013 OVC019 04/01 A2979 RMK AO2
     SLP077 T00440006 TSNO=

SPECI PAPB 282221Z AUTO 15013KT 10SM SCT013 06/01 A2978 RMK AO2
 T00560011 TSNO=

METAR PAPB 282253Z AUTO 14013KT 10SM SCT013 06/01 A2977 RMK AO2
 SLP070 T00560011 TSNO=


NOAA's National Weather Service
Alaska Aviation Weather Unit
6930 Sand Lake Road
Anchorage, AK 99502-1845
Disclaimer
Credits
Glossary
Privacy Policy
About Us
Career Opportunities
Contact AAWU Internet Services Site last modified: April, 17th 2012